createdAt,value
2018-07-14T00:02:06.207Z,57.41
2018-07-14T00:05:30.652Z,56.57
2018-07-14T00:08:55.091Z,57.23
2018-07-14T00:12:19.497Z,56.86
2018-07-14T00:15:43.940Z,57.48
2018-07-14T00:19:08.398Z,58.37
2018-07-14T00:22:32.837Z,58.10
2018-07-14T00:26:01.704Z,57.64
2018-07-14T00:29:26.170Z,58.03
2018-07-14T00:32:50.646Z,58.20
2018-07-14T00:36:15.078Z,58.22
2018-07-14T00:39:39.485Z,57.97
2018-07-14T00:43:03.912Z,58.71
2018-07-14T00:46:28.391Z,59.27
2018-07-14T00:49:52.806Z,59.74
2018-07-14T00:53:17.286Z,60.01
2018-07-14T00:56:41.733Z,60.71
2018-07-14T01:00:06.282Z,60.16
2018-07-14T01:03:30.744Z,60.14
2018-07-14T01:06:55.168Z,60.23
2018-07-14T01:10:19.607Z,61.35
2018-07-14T01:13:44.070Z,61.05
2018-07-14T01:17:08.475Z,60.98
2018-07-14T01:20:32.900Z,61.79
2018-07-14T01:23:57.354Z,62.31
2018-07-14T01:27:21.797Z,62.50
2018-07-14T01:30:46.252Z,62.32
2018-07-14T01:34:10.663Z,62.13
2018-07-14T01:37:35.179Z,62.78
2018-07-14T01:40:59.580Z,62.70
2018-07-14T01:44:23.987Z,63.04
2018-07-14T01:47:48.424Z,62.75
2018-07-14T01:51:12.855Z,63.54
2018-07-14T01:54:37.292Z,63.55
2018-07-14T01:58:01.828Z,63.11
2018-07-14T02:01:26.300Z,63.62
2018-07-14T02:04:50.806Z,63.26
2018-07-14T02:08:15.221Z,63.64
2018-07-14T02:11:39.663Z,63.39
2018-07-14T02:15:04.336Z,63.81
2018-07-14T02:18:28.754Z,64.06
2018-07-14T02:21:53.178Z,64.88
2018-07-14T02:25:17.598Z,64.07
2018-07-14T02:28:42.044Z,64.05
2018-07-14T02:32:06.497Z,64.91
2018-07-14T02:35:30.929Z,65.30
2018-07-14T02:38:55.412Z,65.08
2018-07-14T02:42:19.864Z,64.94
2018-07-14T02:45:44.314Z,65.49
2018-07-14T02:49:08.748Z,65.46
2018-07-14T02:52:33.197Z,65.71
2018-07-14T02:55:57.614Z,66.45
2018-07-14T02:59:22.119Z,66.61
2018-07-14T03:02:46.587Z,65.79
2018-07-14T03:06:11.036Z,66.11
2018-07-14T03:09:35.204Z,66.45
2018-07-14T03:12:59.790Z,65.92
2018-07-14T03:16:24.132Z,66.68
2018-07-14T03:19:48.586Z,66.32
2018-07-14T03:23:13.018Z,67.01
2018-07-14T03:26:37.438Z,67.49
2018-07-14T03:30:01.874Z,66.89
2018-07-14T03:33:26.266Z,67.31
2018-07-14T03:36:50.669Z,67.39
2018-07-14T03:40:15.157Z,67.73
2018-07-14T03:43:39.580Z,68.18
2018-07-14T03:47:04.065Z,67.29
2018-07-14T03:50:28.530Z,68.06
2018-07-14T03:53:52.996Z,67.36
2018-07-14T03:57:17.655Z,68.72
2018-07-14T04:00:42.112Z,68.27
2018-07-14T04:04:06.585Z,67.64
2018-07-14T04:07:31.031Z,68.42
2018-07-14T04:10:55.494Z,67.61
2018-07-14T04:14:19.958Z,68.31
2018-07-14T04:17:44.379Z,68.21
2018-07-14T04:21:08.801Z,68.76
2018-07-14T04:24:33.247Z,68.18
2018-07-14T04:27:58.200Z,68.45
2018-07-14T04:31:22.594Z,68.21
2018-07-14T04:34:47.406Z,68.08
2018-07-14T04:38:11.795Z,67.96
2018-07-14T04:41:36.232Z,68.40
2018-07-14T04:45:00.689Z,67.93
2018-07-14T04:48:25.106Z,67.61
2018-07-14T04:51:49.511Z,67.61
2018-07-14T04:55:13.920Z,67.22
2018-07-14T04:58:38.437Z,66.71
2018-07-14T05:02:02.859Z,66.40
2018-07-14T05:05:27.271Z,67.35
2018-07-14T05:08:51.712Z,67.16
2018-07-14T05:12:16.124Z,66.81
2018-07-14T05:15:40.561Z,65.94
2018-07-14T05:19:05.007Z,65.00
2018-07-14T05:22:29.426Z,65.59
2018-07-14T05:25:53.847Z,64.58
2018-07-14T05:29:18.258Z,64.51
2018-07-14T05:32:42.743Z,64.03
2018-07-14T05:36:07.195Z,63.72
2018-07-14T05:39:31.629Z,64.38
2018-07-14T05:42:56.102Z,63.38
2018-07-14T05:46:20.550Z,63.58
2018-07-14T05:49:45.002Z,64.12
2018-07-14T05:53:09.431Z,64.87
2018-07-14T05:56:33.893Z,63.57
2018-07-14T05:59:58.375Z,62.09
2018-07-14T06:03:22.861Z,62.79
2018-07-14T06:06:47.288Z,62.57
2018-07-14T06:10:11.718Z,62.28
2018-07-14T06:13:36.229Z,62.39
2018-07-14T06:17:00.719Z,62.14
2018-07-14T06:20:25.200Z,61.80
2018-07-14T06:23:49.658Z,60.96
2018-07-14T06:27:14.327Z,60.93
2018-07-14T06:30:38.809Z,60.43
2018-07-14T06:34:03.359Z,59.87
2018-07-14T06:37:27.852Z,60.20
2018-07-14T06:40:52.343Z,60.45
2018-07-14T06:44:16.810Z,60.61
2018-07-14T06:47:41.311Z,60.31
2018-07-14T06:51:05.802Z,60.38
2018-07-14T06:54:30.295Z,59.55
2018-07-14T06:57:54.922Z,59.32
2018-07-14T07:01:19.319Z,59.45
2018-07-14T07:04:43.961Z,58.71
2018-07-14T07:08:08.744Z,59.94
2018-07-14T07:11:33.175Z,58.81
2018-07-14T07:14:57.713Z,58.22
2018-07-14T07:18:22.166Z,58.55
2018-07-14T07:21:46.604Z,57.73
2018-07-14T07:25:11.067Z,57.60
2018-07-14T07:28:35.480Z,57.69
2018-07-14T07:31:59.979Z,56.85
2018-07-14T07:35:24.417Z,57.15
2018-07-14T07:38:48.908Z,56.42
2018-07-14T07:42:13.444Z,55.42
2018-07-14T07:45:37.897Z,55.48
2018-07-14T07:49:02.400Z,54.55
2018-07-14T07:52:26.958Z,54.66
2018-07-14T07:55:51.383Z,53.63
2018-07-14T07:59:15.888Z,53.13
2018-07-14T08:02:40.356Z,54.01
2018-07-14T08:06:04.839Z,52.91
2018-07-14T08:09:29.320Z,53.60
2018-07-14T08:12:53.748Z,52.06
2018-07-14T08:16:18.179Z,52.73
2018-07-14T08:19:42.706Z,52.00
2018-07-14T08:23:07.163Z,52.43
2018-07-14T08:26:31.630Z,52.38
2018-07-14T08:29:56.092Z,51.11
2018-07-14T08:33:20.620Z,51.28
2018-07-14T08:36:45.046Z,50.86
2018-07-14T08:40:09.481Z,49.87
2018-07-14T08:43:33.925Z,49.64
2018-07-14T08:46:58.403Z,49.56
2018-07-14T08:50:22.830Z,48.14
2018-07-14T08:53:47.302Z,49.43
2018-07-14T08:57:11.730Z,47.62
2018-07-14T09:00:36.181Z,48.55
2018-07-14T09:04:00.654Z,47.78
2018-07-14T09:07:25.078Z,47.56
2018-07-14T09:10:49.510Z,47.41
2018-07-14T09:14:13.965Z,47.94
2018-07-14T09:17:38.375Z,46.80
2018-07-14T09:21:02.819Z,46.21
2018-07-14T09:24:27.250Z,45.50
2018-07-14T09:27:51.703Z,45.70
2018-07-14T09:31:16.200Z,45.47
2018-07-14T09:34:40.736Z,42.66
2018-07-14T09:38:05.298Z,45.05
2018-07-14T09:41:29.708Z,43.96
2018-07-14T09:44:54.172Z,42.35
2018-07-14T09:48:18.699Z,43.34
2018-07-14T09:51:46.194Z,42.59
2018-07-14T09:55:10.690Z,40.86
2018-07-14T09:58:35.202Z,40.25
2018-07-14T10:01:59.373Z,40.79
2018-07-14T10:05:23.823Z,42.23
2018-07-14T10:08:48.272Z,39.31
2018-07-14T10:12:12.713Z,37.96
2018-07-14T10:15:37.160Z,38.80
2018-07-14T10:19:01.601Z,37.16
2018-07-14T10:22:26.028Z,37.96
2018-07-14T10:25:50.652Z,35.45
2018-07-14T10:29:14.920Z,35.56
2018-07-14T10:32:39.383Z,35.10
2018-07-14T10:36:03.834Z,33.70
2018-07-14T10:39:28.288Z,32.03
2018-07-14T10:42:52.726Z,31.57
2018-07-14T10:46:17.236Z,29.89
2018-07-14T10:49:41.677Z,28.23
2018-07-14T10:53:06.200Z,27.97
2018-07-14T10:56:30.671Z,25.09
2018-07-14T10:59:55.121Z,21.96
2018-07-14T11:03:19.587Z,21.62
2018-07-14T11:06:44.141Z,19.41
2018-07-14T11:10:08.597Z,18.25
2018-07-14T11:13:33.018Z,17.37
2018-07-14T11:16:57.500Z,16.97
2018-07-14T11:20:21.968Z,15.66
2018-07-14T11:23:46.408Z,16.30
2018-07-14T11:27:10.899Z,16.50
2018-07-14T11:30:35.358Z,15.73
2018-07-14T11:33:59.945Z,16.30
2018-07-14T11:37:24.418Z,15.23
2018-07-14T11:40:48.869Z,16.68
2018-07-14T11:44:13.369Z,17.28
2018-07-14T11:47:38.155Z,16.92
2018-07-14T11:51:02.576Z,16.17
2018-07-14T11:54:27.048Z,15.86
2018-07-14T11:57:51.488Z,16.82
2018-07-14T12:01:15.998Z,16.15
2018-07-14T12:04:40.511Z,16.30
2018-07-14T12:08:04.992Z,16.33
2018-07-14T12:11:29.448Z,15.14
2018-07-14T12:14:53.954Z,15.58
2018-07-14T12:18:18.427Z,14.38
2018-07-14T12:21:42.924Z,14.61
2018-07-14T12:25:07.371Z,14.15
2018-07-14T12:28:32.082Z,15.03
2018-07-14T12:31:56.576Z,14.26
2018-07-14T12:35:21.023Z,13.81
2018-07-14T12:38:45.451Z,13.79
2018-07-14T12:42:09.955Z,13.71
2018-07-14T12:45:34.416Z,12.77
2018-07-14T12:48:58.863Z,12.85
2018-07-14T12:52:23.318Z,12.38
2018-07-14T12:55:47.768Z,13.68
2018-07-14T12:59:12.214Z,13.81
2018-07-14T13:02:36.707Z,13.67
2018-07-14T13:06:01.231Z,14.59
2018-07-14T13:09:25.634Z,13.74
2018-07-14T13:12:50.075Z,14.29
2018-07-14T13:16:14.509Z,14.01
2018-07-14T13:19:38.942Z,12.93
2018-07-14T13:23:03.410Z,12.74
2018-07-14T13:26:27.870Z,12.46
2018-07-14T13:29:52.330Z,12.25
2018-07-14T13:33:16.742Z,13.44
2018-07-14T13:36:41.220Z,14.72
2018-07-14T13:40:05.665Z,13.55
2018-07-14T13:43:30.123Z,13.87
2018-07-14T13:46:54.560Z,13.25
2018-07-14T13:50:19.029Z,13.85
2018-07-14T13:53:43.507Z,12.97
2018-07-14T13:57:07.983Z,13.37
2018-07-14T14:00:32.455Z,13.19
2018-07-14T14:03:56.915Z,13.42
2018-07-14T14:07:27.525Z,13.41
2018-07-14T14:10:51.982Z,13.12
2018-07-14T14:14:16.438Z,12.70
2018-07-14T14:17:40.935Z,13.00
2018-07-14T14:21:05.368Z,12.30
2018-07-14T14:24:29.816Z,12.90
2018-07-14T14:27:54.250Z,12.31
2018-07-14T14:31:18.710Z,12.76
2018-07-14T14:34:43.161Z,12.41
2018-07-14T14:38:07.722Z,13.52
2018-07-14T14:41:32.223Z,13.43
2018-07-14T14:44:56.700Z,11.46
2018-07-14T14:48:21.199Z,12.45
2018-07-14T14:51:45.651Z,11.38
2018-07-14T14:55:10.127Z,10.69
2018-07-14T14:58:34.607Z,12.16
2018-07-14T15:01:59.072Z,11.84
2018-07-14T15:05:23.499Z,12.41
2018-07-14T15:08:48.007Z,11.40
2018-07-14T15:12:12.447Z,12.94
2018-07-14T15:15:36.882Z,12.44
2018-07-14T15:19:01.322Z,12.54
2018-07-14T15:22:25.730Z,11.62
2018-07-14T15:25:50.187Z,11.52
2018-07-14T15:29:14.614Z,12.27
2018-07-14T15:32:39.097Z,12.63
2018-07-14T15:36:03.475Z,12.73
2018-07-14T15:39:27.943Z,10.42
2018-07-14T15:42:52.383Z,11.13
2018-07-14T15:46:16.828Z,10.61
2018-07-14T15:49:41.306Z,11.06
2018-07-14T15:53:05.766Z,11.39
2018-07-14T15:56:30.252Z,11.85
2018-07-14T15:59:54.693Z,11.44
2018-07-14T16:03:18.842Z,11.25
2018-07-14T16:06:43.301Z,10.44
2018-07-14T16:10:07.735Z,10.78
2018-07-14T16:13:32.187Z,11.15
2018-07-14T16:16:56.635Z,10.61
2018-07-14T16:20:21.063Z,10.54
2018-07-14T16:23:45.576Z,11.29
2018-07-14T16:27:10.502Z,11.83
2018-07-14T16:30:35.105Z,11.66
2018-07-14T16:33:59.544Z,12.65
2018-07-14T16:37:24.004Z,13.28
2018-07-14T16:40:49.135Z,14.97
2018-07-14T16:44:13.525Z,15.42
2018-07-14T16:47:37.998Z,16.61
2018-07-14T16:51:02.465Z,16.08
2018-07-14T16:54:26.906Z,16.01
2018-07-14T16:57:51.376Z,15.49
2018-07-14T17:01:15.846Z,16.59
2018-07-14T17:04:40.311Z,16.72
2018-07-14T17:08:04.772Z,17.47
2018-07-14T17:11:29.232Z,18.05
2018-07-14T17:14:53.676Z,17.86
2018-07-14T17:18:18.148Z,20.11
2018-07-14T17:21:42.584Z,20.58
2018-07-14T17:25:07.091Z,20.05
2018-07-14T17:28:31.556Z,20.31
2018-07-14T17:31:55.996Z,21.38
2018-07-14T17:35:20.446Z,21.98
2018-07-14T17:38:44.896Z,22.54
2018-07-14T17:42:09.386Z,23.31
2018-07-14T17:45:34.013Z,24.10
2018-07-14T17:48:58.439Z,24.11
2018-07-14T17:52:22.619Z,24.25
2018-07-14T17:55:47.079Z,25.84
2018-07-14T17:59:11.620Z,24.96
2018-07-14T18:02:36.093Z,25.18
2018-07-14T18:06:00.554Z,26.88
2018-07-14T18:09:25.046Z,26.05
2018-07-14T18:12:49.494Z,26.24
2018-07-14T18:16:14.029Z,27.56
2018-07-14T18:19:38.544Z,29.05
2018-07-14T18:23:03.131Z,27.82
2018-07-14T18:26:27.579Z,30.32
2018-07-14T18:29:52.030Z,29.24
2018-07-14T18:33:16.552Z,28.25
2018-07-14T18:36:41.027Z,28.90
2018-07-14T18:40:05.567Z,28.57
2018-07-14T18:43:30.077Z,30.20
2018-07-14T18:46:54.599Z,29.99
2018-07-14T18:50:19.080Z,29.63
2018-07-14T18:53:43.546Z,29.15
2018-07-14T18:57:08.087Z,29.61
2018-07-14T19:00:32.544Z,30.46
2018-07-14T19:03:57.061Z,31.75
2018-07-14T19:07:21.523Z,32.20
2018-07-14T19:10:45.959Z,31.13
2018-07-14T19:14:10.446Z,31.57
2018-07-14T19:17:34.908Z,31.36
2018-07-14T19:20:59.416Z,32.54
2018-07-14T19:24:23.839Z,32.08
2018-07-14T19:27:48.301Z,32.28
2018-07-14T19:31:12.454Z,32.55
2018-07-14T19:34:37.036Z,33.48
2018-07-14T19:38:01.445Z,33.37
2018-07-14T19:41:25.916Z,33.24
2018-07-14T19:44:50.323Z,32.96
2018-07-14T19:48:15.579Z,33.18
2018-07-14T19:51:40.025Z,34.35
2018-07-14T19:55:04.603Z,35.51
2018-07-14T19:58:29.096Z,35.79
2018-07-14T20:01:53.539Z,36.28
2018-07-14T20:05:17.964Z,37.32
2018-07-14T20:08:42.391Z,36.83
2018-07-14T20:12:07.040Z,38.35
2018-07-14T20:15:31.458Z,38.25
2018-07-14T20:18:55.943Z,37.49
2018-07-14T20:22:20.399Z,39.20
2018-07-14T20:25:44.806Z,40.05
2018-07-14T20:29:09.280Z,39.15
2018-07-14T20:32:33.709Z,39.36
2018-07-14T20:35:58.164Z,40.08
2018-07-14T20:39:22.616Z,39.29
2018-07-14T20:42:47.085Z,39.63
2018-07-14T20:46:11.565Z,41.45
2018-07-14T20:49:35.996Z,40.70
2018-07-14T20:53:00.434Z,40.72
2018-07-14T20:56:24.917Z,39.99
2018-07-14T20:59:49.379Z,40.21
2018-07-14T21:03:13.869Z,40.76
2018-07-14T21:06:38.311Z,39.93
2018-07-14T21:10:02.833Z,40.76
2018-07-14T21:13:27.324Z,40.26
2018-07-14T21:16:51.842Z,40.70
2018-07-14T21:20:16.259Z,42.01
2018-07-14T21:23:40.730Z,42.56
2018-07-14T21:27:05.452Z,42.48
2018-07-14T21:30:29.914Z,42.00
2018-07-14T21:33:54.403Z,43.15
2018-07-14T21:37:18.845Z,42.12
2018-07-14T21:40:43.309Z,42.65
2018-07-14T21:44:07.764Z,43.70
2018-07-14T21:47:32.185Z,43.35
2018-07-14T21:50:56.632Z,44.40
2018-07-14T21:54:21.118Z,43.48
2018-07-14T21:57:45.615Z,43.86
2018-07-14T22:01:15.464Z,45.11
2018-07-14T22:04:39.930Z,44.30
2018-07-14T22:08:04.429Z,44.62
2018-07-14T22:11:28.936Z,43.98
2018-07-14T22:14:53.463Z,44.93
2018-07-14T22:18:17.922Z,45.21
2018-07-14T22:21:42.365Z,44.91
2018-07-14T22:25:06.808Z,45.85
2018-07-14T22:28:31.261Z,45.63
2018-07-14T22:31:55.708Z,45.95
2018-07-14T22:35:20.187Z,46.88
2018-07-14T22:38:44.619Z,47.13
2018-07-14T22:42:09.078Z,47.49
2018-07-14T22:45:33.570Z,47.09
2018-07-14T22:48:58.006Z,47.89
2018-07-14T22:52:22.416Z,48.01
2018-07-14T22:55:46.841Z,46.60
2018-07-14T22:59:11.300Z,46.01
2018-07-14T23:02:35.713Z,45.74
2018-07-14T23:06:00.161Z,46.48
2018-07-14T23:09:24.610Z,46.09
2018-07-14T23:12:49.038Z,45.40
2018-07-14T23:16:13.571Z,46.18
2018-07-14T23:19:37.984Z,46.87
2018-07-14T23:23:02.415Z,46.84
2018-07-14T23:26:26.835Z,47.03
2018-07-14T23:29:51.270Z,47.44
2018-07-14T23:33:15.751Z,47.02
2018-07-14T23:36:40.241Z,46.91
2018-07-14T23:40:04.887Z,47.55
2018-07-14T23:43:29.344Z,47.11
2018-07-14T23:46:53.814Z,47.77
2018-07-14T23:50:18.220Z,46.71
2018-07-14T23:53:42.693Z,47.22
2018-07-14T23:57:07.708Z,46.88
